^^
Station Historical Data
Daily Summary for January 13, 2018 Units:  English    Metric   Both
« Previous Day
Next Day »
Daily Weekly Monthly Yearly Custom
  High: Low: Average:
Temperature: TemperatureF °F 76.6 °F 80.3 °F
Dew Point: DewpointF °F 45.5 °F 46.7 °F
Humidity: Humidity% 28% 30%
Wind Speed: WindSpeedMPHmph -999.9mph -14.3mph
Wind Gust: WindSpeedGustMPHmph - -
Wind- -
Pressure: PressureIn in 29.56 in -
Precipitation: 0.00 in    
Historical Graphs
 
 
Tabular Data for January 13, 2018
Time Temperature Dew Point Pressure Wind Wind Speed Wind Gust Humidity Rainfall Rate (Hourly) solar Conditions
TemperatureF °F DewpointF °F PressureIn in Calm     Humidity% HourlyPrecipIn in SoftwareType W/m2 Conditions
08:50 76.6 °F 46.9 °F 29.73 in North -999.9 mph -999.0 mph 35% 0.00 in meteobridge W/m2
08:56 76.8 °F 47.1 °F 29.74 in North 6.0 mph 11.0 mph 35% 0.00 in meteobridge W/m2
09:02 76.6 °F 46.9 °F 29.74 in North 4.0 mph 10.0 mph 35% 0.00 in meteobridge W/m2
09:08 76.8 °F 47.1 °F 29.74 in North 10.1 mph 11.0 mph 35% 0.00 in meteobridge W/m2
09:15 77.4 °F 47.5 °F 29.73 in Calm   3.0 mph 35% 0.00 in meteobridge W/m2
09:23 77.5 °F 47.7 °F 29.73 in NNE 2.0 mph 3.0 mph 35% 0.00 in meteobridge W/m2
09:39 78.6 °F 47.1 °F 29.73 in North 4.9 mph 6.0 mph 33% 0.00 in meteobridge W/m2
09:45 78.8 °F 48.0 °F 29.73 in North 8.9 mph 12.0 mph 34% 0.00 in meteobridge W/m2
09:51 79.3 °F 47.7 °F 29.73 in North 4.9 mph 7.0 mph 33% 0.00 in meteobridge W/m2
09:57 79.3 °F 47.7 °F 29.73 in NNE 4.9 mph 9.0 mph 33% 0.00 in meteobridge W/m2
10:03 79.0 °F 48.2 °F 29.73 in East 2.9 mph 5.0 mph 34% 0.00 in meteobridge W/m2
10:10 79.9 °F 47.3 °F 29.73 in NNW 2.0 mph 11.0 mph 32% 0.00 in meteobridge W/m2
10:16 79.9 °F 47.3 °F 29.73 in Calm   5.0 mph 32% 0.00 in meteobridge W/m2
10:22 80.2 °F 48.6 °F 29.73 in NNE 10.1 mph 10.1 mph 33% 0.00 in meteobridge W/m2
10:28 80.6 °F 48.0 °F 29.73 in NNW 11.0 mph 11.0 mph 32% 0.00 in meteobridge W/m2
10:34 80.1 °F 47.5 °F 29.73 in NNE 6.0 mph 13.0 mph 32% 0.00 in meteobridge W/m2
10:40 81.0 °F 47.5 °F 29.73 in North 6.0 mph 14.0 mph 31% 0.00 in meteobridge W/m2
10:46 80.8 °F 47.3 °F 29.73 in NNE 6.9 mph 14.0 mph 31% 0.00 in meteobridge W/m2
10:52 80.8 °F 47.3 °F 29.73 in NNW 4.9 mph 11.0 mph 31% 0.00 in meteobridge W/m2
10:58 81.1 °F 46.8 °F 29.73 in ESE 2.0 mph 11.0 mph 30% 0.00 in meteobridge W/m2
11:04 81.3 °F 46.9 °F 29.73 in North 4.0 mph 10.0 mph 30% 0.00 in meteobridge W/m2
11:15 80.2 °F 46.9 °F 29.73 in North 6.0 mph 15.0 mph 31% 0.00 in meteobridge W/m2
11:21 80.2 °F 47.7 °F 29.71 in Calm   5.0 mph 32% 0.00 in meteobridge W/m2
11:29 81.3 °F 46.9 °F 29.71 in North 6.0 mph 21.0 mph 30% 0.00 in meteobridge W/m2
11:35 82.2 °F 47.7 °F 29.71 in NNW 8.1 mph 17.0 mph 30% 0.00 in meteobridge W/m2
11:41 82.0 °F 46.6 °F 29.71 in North 8.9 mph 9.0 mph 29% 0.00 in meteobridge W/m2
11:47 81.0 °F 46.6 °F 29.71 in North 6.9 mph 12.0 mph 30% 0.00 in meteobridge W/m2
11:53 81.7 °F 47.3 °F 29.71 in North 6.0 mph 14.0 mph 30% 0.00 in meteobridge W/m2
12:00 81.1 °F 46.8 °F 29.71 in NNE 11.0 mph 16.0 mph 30% 0.00 in meteobridge W/m2
12:06 80.8 °F 46.4 °F 29.70 in North 10.1 mph 23.0 mph 30% 0.00 in meteobridge W/m2
12:12 80.8 °F 45.5 °F 29.71 in NW 0.9 mph 10.0 mph 29% 0.00 in meteobridge W/m2
12:18 80.8 °F 46.4 °F 29.70 in NNW 11.0 mph 14.0 mph 30% 0.00 in meteobridge W/m2
12:24 80.2 °F 46.0 °F 29.71 in NNW 2.9 mph 12.0 mph 30% 0.00 in meteobridge W/m2
12:30 80.2 °F 46.0 °F 29.71 in NNE 6.9 mph 11.0 mph 30% 0.00 in meteobridge W/m2
12:42 81.9 °F 46.4 °F 29.70 in NNE 6.0 mph 10.0 mph 29% 0.00 in meteobridge W/m2
12:48 81.7 °F 46.4 °F 29.70 in NW 11.0 mph 21.0 mph 29% 0.00 in meteobridge W/m2
12:54 81.9 °F 46.4 °F 29.70 in Calm   14.0 mph 29% 0.00 in meteobridge W/m2
13:04 81.0 °F 46.6 °F 29.70 in NNE 2.9 mph 10.0 mph 30% 0.00 in meteobridge W/m2
13:17 80.6 °F 46.2 °F 29.70 in NNW 11.0 mph 19.0 mph 30% 0.00 in meteobridge W/m2
13:23 81.5 °F 46.2 °F 29.70 in North 8.9 mph 10.0 mph 29% 0.00 in meteobridge W/m2
13:29 81.5 °F 47.1 °F 29.69 in NE 4.9 mph 6.0 mph 30% 0.00 in meteobridge W/m2
13:35 81.3 °F 46.9 °F 29.69 in ENE 2.0 mph 9.0 mph 30% 0.00 in meteobridge W/m2
13:41 81.9 °F 47.3 °F 29.68 in NNW 2.9 mph 14.0 mph 30% 0.00 in meteobridge W/m2
13:47 82.6 °F 47.1 °F 29.67 in NNE 4.0 mph 18.0 mph 29% 0.00 in meteobridge W/m2
13:59 82.9 °F 47.5 °F 29.67 in North 14.1 mph 18.0 mph 29% 0.00 in meteobridge W/m2
14:05 82.2 °F 46.8 °F 29.67 in NNW 16.1 mph 19.0 mph 29% 0.00 in meteobridge W/m2
14:13 82.2 °F 46.8 °F 29.67 in North 10.1 mph 14.0 mph 29% 0.00 in meteobridge W/m2
14:19 83.1 °F 47.7 °F 29.67 in North 2.9 mph 10.0 mph 29% 0.00 in meteobridge W/m2
14:25 84.0 °F 47.5 °F 29.66 in NNE 6.0 mph 16.0 mph 28% 0.00 in meteobridge W/m2
14:31 82.9 °F 47.5 °F 29.66 in NNE 10.1 mph 15.0 mph 29% 0.00 in meteobridge W/m2
14:37 82.2 °F 46.8 °F 29.65 in North 8.9 mph 13.0 mph 29% 0.00 in meteobridge W/m2
14:43 81.9 °F 46.4 °F 29.66 in NNE 8.9 mph 14.0 mph 29% 0.00 in meteobridge W/m2
14:49 81.5 °F 47.1 °F 29.65 in North 2.9 mph 10.0 mph 30% 0.00 in meteobridge W/m2
14:55 81.1 °F 46.8 °F 29.65 in North 10.1 mph 16.0 mph 30% 0.00 in meteobridge W/m2
15:02 81.5 °F 47.1 °F 29.65 in NNW 11.0 mph 11.0 mph 30% 0.00 in meteobridge W/m2
15:08 83.7 °F 48.0 °F 29.65 in NW 8.9 mph 17.0 mph 29% 0.00 in meteobridge W/m2
15:16 84.4 °F 47.7 °F 29.64 in NNE 11.0 mph 15.0 mph 28% 0.00 in meteobridge W/m2
15:22 83.7 °F 48.0 °F 29.63 in NNE 6.0 mph 10.0 mph 29% 0.00 in meteobridge W/m2
15:28 83.7 °F 48.0 °F 29.63 in NNE 8.9 mph 17.0 mph 29% 0.00 in meteobridge W/m2
15:38 82.2 °F 46.8 °F 29.63 in NNW 6.0 mph 16.0 mph 29% 0.00 in meteobridge W/m2
15:44 82.8 °F 47.3 °F 29.62 in NE 6.9 mph 16.0 mph 29% 0.00 in meteobridge W/m2
15:50 84.6 °F 47.8 °F 29.62 in NNE 6.0 mph 14.0 mph 28% 0.00 in meteobridge W/m2
15:54 84.4 °F 47.7 °F 29.62 in North 4.0 mph 10.0 mph 28% 0.00 in meteobridge W/m2
16:00 82.9 °F 47.5 °F 29.62 in North 4.0 mph 17.0 mph 29% 0.00 in meteobridge W/m2
16:06 82.2 °F 46.8 °F 29.62 in NNE 8.9 mph 13.0 mph 29% 0.00 in meteobridge W/m2
16:12 82.0 °F 46.6 °F 29.61 in NNE 6.0 mph 7.0 mph 29% 0.00 in meteobridge W/m2
16:18 81.9 °F 47.3 °F 29.61 in NNW 12.1 mph 15.0 mph 30% 0.00 in meteobridge W/m2
16:24 81.7 °F 47.3 °F 29.60 in NNE 8.9 mph 11.0 mph 30% 0.00 in meteobridge W/m2
16:32 83.7 °F 48.0 °F 29.60 in North 8.9 mph 15.0 mph 29% 0.00 in meteobridge W/m2
16:38 83.3 °F 47.7 °F 29.59 in NNE 4.9 mph 13.0 mph 29% 0.00 in meteobridge W/m2
16:51 81.7 °F 47.3 °F 29.59 in North 8.9 mph 11.0 mph 30% 0.00 in meteobridge W/m2
16:59 81.7 °F 47.3 °F 29.59 in NNW 10.1 mph 11.0 mph 30% 0.00 in meteobridge W/m2
17:05 81.5 °F 46.2 °F 29.58 in North 2.0 mph 7.0 mph 29% 0.00 in meteobridge W/m2
17:11 81.9 °F 47.3 °F 29.58 in North 8.1 mph 11.0 mph 30% 0.00 in meteobridge W/m2
17:18 81.9 °F 47.3 °F 29.58 in NNW 6.0 mph 10.0 mph 30% 0.00 in meteobridge W/m2
17:24 82.8 °F 47.3 °F 29.58 in NNW 6.0 mph 13.0 mph 29% 0.00 in meteobridge W/m2
17:30 83.3 °F 46.8 °F 29.57 in NNE 8.9 mph 11.0 mph 28% 0.00 in meteobridge W/m2
17:42 83.7 °F 47.1 °F 29.57 in North 10.1 mph 18.0 mph 28% 0.00 in meteobridge W/m2
17:48 82.8 °F 47.3 °F 29.57 in North 17.0 mph 17.0 mph 29% 0.00 in meteobridge W/m2
17:54 82.8 °F 49.1 °F 29.57 in North 2.9 mph 11.0 mph 31% 0.00 in meteobridge W/m2
18:00 81.7 °F 47.3 °F 29.57 in NNW 6.9 mph 11.0 mph 30% 0.00 in meteobridge W/m2
18:07 81.9 °F 46.4 °F 29.57 in North 6.9 mph 7.0 mph 29% 0.00 in meteobridge W/m2
18:15 82.2 °F 46.8 °F 29.57 in NNE 2.0 mph 3.0 mph 29% 0.00 in meteobridge W/m2
18:21 82.4 °F 46.0 °F 29.57 in North 2.9 mph 6.0 mph 28% 0.00 in meteobridge W/m2
18:27 81.9 °F 46.4 °F 29.56 in North 2.9 mph 4.0 mph 29% 0.00 in meteobridge W/m2
18:33 81.9 °F 46.4 °F 29.57 in North 2.0 mph 3.0 mph 29% 0.00 in meteobridge W/m2
18:39 81.9 °F 46.4 °F 29.57 in North 4.9 mph 10.0 mph 29% 0.00 in meteobridge W/m2
18:46 81.7 °F 46.4 °F 29.57 in NE 4.9 mph 5.0 mph 29% 0.00 in meteobridge W/m2
18:52 81.5 °F 48.0 °F 29.57 in Calm   2.0 mph 31% 0.00 in meteobridge W/m2
18:58 81.9 °F 49.1 °F 29.57 in SSE 4.9 mph 5.0 mph 32% 0.00 in meteobridge W/m2
19:04 78.1 °F 51.8 °F 29.57 in ESE 4.9 mph 10.0 mph 40% 0.00 in meteobridge W/m2
19:10 76.6 °F 48.4 °F 29.57 in North 6.0 mph 11.0 mph 37% 0.00 in meteobridge W/m2
19:16 77.4 °F 46.0 °F 29.58 in NNE 8.9 mph 11.0 mph 33% 0.00 in meteobridge W/m2
19:22 77.4 °F 46.0 °F 29.58 in NNE 8.9 mph 9.0 mph 33% 0.00 in meteobridge W/m2
19:29 77.4 °F 46.0 °F 29.59 in NNE 8.9 mph -999.0 mph 33% 0.00 in meteobridge W/m2
19:35 77.4 °F 46.0 °F 29.59 in North -999.9 mph -999.0 mph 33% 0.00 in meteobridge W/m2
Regenstein, Windhoek, Namibia
Compliments of Weather Underground - 2.5 mb